Etusivu
METAR-TAF:

METAR-TAF

Lentoasemat :

Jönköping, Ruotsi

Leveyspiiri: 57-46N, Pituuspiiri: 014-05E, korkeus merenpinnasta: 226 m

Tämänhetkinen sää

Tämä raportti tehtiin 20 minuuttia sitten, kello 20.50 UTC
Tuuli 9 kn etelästä/lounaasta
Lämpötila -1°C
Kosteus 86%
Ilmanpaine 1040 hPa
Näkyvyys 10 km tai enemmän
Hajonneita pilviä 3300 ft:n korkeudessa
Hajonneita pilviä 4600 ft:n korkeudessa

METAR: ESGJ 222050Z 20009KT 9999 BKN033 BKN046 M01/M03 Q1040 R19/19//70

Aika: 22:10 (21:10 UTC)

Sääennuste

Tämä raportti tehtiin 3 tuntia ja 40 minuuttia sitten, kello 17.30 UTC
Ennuste voimassa 22. päivästä klo 18 UTC - 22. päivään klo 22 UTC
Tuuli 7 kn etelästä/lounaasta
Näkyvyys 10 km tai enemmän
Muutamia pilviä 1500 ft:n korkeudessa

TAF: ESGJ 221730Z 2218/2222 20007KT 9999 FEW015

Säähavainnot ja -ennusteet yli 4000 lentoasemalta (METAR- ja TAF-raportit).

Käytössä olevat sääasemat on merkitty karttaan keltaisilla ja punaisilla pisteillä.

Aseta hiiri pisteen päälle nähdäksesi sääaseman nimen.

Klikkaa sitten nähdäksesi säähavainnot ja -ennusteet.

Kartan vaihtaminen: klikkaa mustalla rastilla varustettuja vihreitä pisteitä, niin voit zoomata sisään; viivalla varustettua vihreää pistettä, niin voit zoomata ulos tai vihreitä nuolia, niin pääset viereisille kartoille.


METAR-TAF: